Time;durP1;ratioP1;P1;durP2;ratioP2;P2;SDS_P1;SDS_P2;PMS_P1;PMS_P2;Temp;Humidity;BMP_temperature;BMP_pressure;BME280_temperature;BME280_humidity;BME280_pressure;Samples;Min_cycle;Max_cycle;Signal;HPM_P1;HPM_P2
2023/07/11 00:01:50;;;;;;;3.20;1.92;;;;;;;20.02;79.95;101429.94;5012903;28;20022;-75
2023/07/11 00:04:16;;;;;;;5.05;2.00;;;;;;;19.94;80.27;101428.34;5007047;28;20544;-73
2023/07/11 00:06:41;;;;;;;6.03;2.15;;;;;;;19.92;80.39;101429.56;5004035;28;20038;-73
2023/07/11 00:09:07;;;;;;;3.70;1.90;;;;;;;19.94;79.84;101433.59;5003401;28;20048;-73
2023/07/11 00:11:32;;;;;;;6.10;2.38;;;;;;;19.95;79.75;101427.34;5003107;28;21894;-73
2023/07/11 00:13:59;;;;;;;4.88;2.03;;;;;;;19.94;79.60;101422.25;5001745;28;20037;-73
2023/07/11 00:16:26;;;;;;;4.70;2.08;;;;;;;19.93;79.58;101418.84;5007062;28;20090;-73
2023/07/11 00:18:52;;;;;;;5.95;2.10;;;;;;;19.91;79.68;101420.03;5004232;28;20306;-72
2023/07/11 00:21:18;;;;;;;6.80;1.80;;;;;;;19.83;79.77;101413.16;5004975;28;20572;-74
2023/07/11 00:23:43;;;;;;;5.63;2.50;;;;;;;19.74;80.44;101420.44;5008603;28;20042;-73
2023/07/11 00:26:09;;;;;;;7.18;2.10;;;;;;;19.71;80.42;101426.06;5009303;28;20061;-73
2023/07/11 00:28:34;;;;;;;4.95;2.40;;;;;;;19.59;80.32;101412.72;5004517;28;20030;-73
2023/07/11 00:31:00;;;;;;;8.40;2.35;;;;;;;19.56;80.61;101409.69;5004482;28;20030;-72
2023/07/11 00:33:29;;;;;;;6.38;1.70;;;;;;;19.51;80.54;101409.47;5007456;28;20913;-73
2023/07/11 00:35:55;;;;;;;5.85;2.10;;;;;;;19.52;80.25;101403.19;5005879;28;21354;-73
2023/07/11 00:38:21;;;;;;;4.22;2.10;;;;;;;19.52;79.87;101408.47;5002232;28;20026;-73
2023/07/11 00:40:49;;;;;;;6.15;2.38;;;;;;;19.53;79.74;101407.44;5002748;28;20030;-73
2023/07/11 00:43:17;;;;;;;3.88;2.45;;;;;;;19.43;79.96;101407.84;5005347;28;20034;-73
2023/07/11 00:46:04;;;;;;;6.80;1.80;;;;;;;19.34;80.35;101401.94;5000739;28;20137;-73
2023/07/11 00:48:35;;;;;;;8.65;2.25;;;;;;;19.34;80.54;101403.75;5007875;28;20404;-74
2023/07/11 00:51:01;;;;;;;7.22;2.55;;;;;;;19.35;80.38;101397.50;5006619;28;20029;-73
2023/07/11 00:53:29;;;;;;;5.80;2.45;;;;;;;19.39;79.84;101398.72;5004335;28;20099;-72
2023/07/11 00:56:00;;;;;;;7.50;2.30;;;;;;;19.42;79.12;101396.50;5010825;28;20518;-73
2023/07/11 00:58:28;;;;;;;;;;;;;;;19.43;79.23;101392.06;5001781;28;20432;-74
2023/07/11 01:00:54;;;;;;;6.60;2.05;;;;;;;19.40;79.63;101395.06;4991605;28;19940;-73
2023/07/11 01:03:22;;;;;;;6.28;1.90;;;;;;;19.39;80.12;101389.00;5007214;28;20128;-73
2023/07/11 01:05:47;;;;;;;3.97;2.35;;;;;;;19.35;80.22;101385.16;5000736;28;20037;-73
2023/07/11 01:08:14;;;;;;;5.82;1.98;;;;;;;19.29;80.78;101390.41;5003586;28;20022;-74
2023/07/11 01:10:40;;;;;;;4.45;1.80;;;;;;;19.28;80.85;101391.44;5009414;28;20049;-73
2023/07/11 01:13:06;;;;;;;10.23;2.47;;;;;;;19.25;81.11;101388.19;5009078;28;20136;-73
2023/07/11 01:15:32;;;;;;;6.13;2.95;;;;;;;19.25;81.14;101385.56;5004048;28;20061;-74
2023/07/11 01:17:57;;;;;;;7.28;2.10;;;;;;;19.24;80.97;101388.38;5004602;28;20030;-72
2023/07/11 01:20:22;;;;;;;3.05;1.90;;;;;;;19.21;81.04;101383.50;5002320;28;20041;-73
2023/07/11 01:22:51;;;;;;;3.92;1.90;;;;;;;19.16;81.54;101386.75;5006223;28;20045;-73
2023/07/11 01:25:16;;;;;;;6.78;2.30;;;;;;;19.11;81.66;101389.16;5005132;28;20482;-74
2023/07/11 01:27:45;;;;;;;7.28;2.20;;;;;;;18.96;82.20;101388.50;5011124;28;20022;-72
2023/07/11 01:30:16;;;;;;;7.65;1.90;;;;;;;18.91;82.72;101385.66;5013679;28;20037;-73
2023/07/11 01:32:41;;;;;;;9.05;1.92;;;;;;;18.92;82.22;101387.28;5028980;28;20519;-72
2023/07/11 01:35:07;;;;;;;5.63;2.65;;;;;;;18.95;82.09;101379.00;5011929;28;20120;-73
2023/07/11 01:37:34;;;;;;;5.63;2.45;;;;;;;18.97;81.87;101374.38;5012014;28;20026;-72
2023/07/11 01:40:00;;;;;;;7.43;2.22;;;;;;;18.94;81.76;101366.88;5011311;28;20045;-72
2023/07/11 01:42:26;;;;;;;6.57;2.28;;;;;;;18.93;81.72;101370.50;5007343;28;20049;-73
2023/07/11 01:44:52;;;;;;;5.38;2.03;;;;;;;18.92;81.98;101367.06;5004095;28;20091;-73
2023/07/11 01:47:17;;;;;;;6.80;2.10;;;;;;;18.94;81.97;101366.88;5009240;28;20038;-75
2023/07/11 01:49:43;;;;;;;6.43;2.10;;;;;;;18.89;82.50;101364.81;5006292;28;20065;-72
2023/07/11 01:52:15;;;;;;;5.50;2.10;;;;;;;18.86;82.73;101365.25;5009639;28;20064;-72
2023/07/11 01:54:40;;;;;;;8.95;2.40;;;;;;;18.84;82.77;101357.56;5008049;28;20533;-72
2023/07/11 01:57:07;;;;;;;5.18;2.13;;;;;;;18.79;82.88;101352.03;4994210;28;20129;-73
2023/07/11 01:59:33;;;;;;;8.10;2.50;;;;;;;18.72;82.79;101355.66;5007048;28;20117;-72
2023/07/11 02:01:59;;;;;;;4.07;2.30;;;;;;;18.66;82.90;101355.41;5012454;28;20116;-73
2023/07/11 02:04:25;;;;;;;7.35;2.95;;;;;;;18.67;82.96;101358.88;5010686;28;20121;-73
2023/07/11 02:06:51;;;;;;;6.15;2.15;;;;;;;18.67;82.73;101358.88;4998212;28;20392;-73
2023/07/11 02:09:18;;;;;;;6.07;2.30;;;;;;;18.67;82.82;101357.06;4992040;28;20029;-74
2023/07/11 02:11:44;;;;;;;5.55;2.40;;;;;;;18.68;82.97;101348.19;5011810;28;20091;-73
2023/07/11 02:14:12;;;;;;;6.45;2.35;;;;;;;18.69;83.01;101351.59;5016948;28;20054;-72
2023/07/11 02:16:37;;;;;;;4.93;2.10;;;;;;;18.70;83.23;101347.16;5007246;28;20109;-74
2023/07/11 02:19:03;;;;;;;7.57;2.53;;;;;;;18.70;83.47;101344.53;5005463;28;20033;-72
2023/07/11 02:21:30;;;;;;;5.22;2.22;;;;;;;18.69;83.35;101341.09;5004772;28;20532;-73
2023/07/11 02:23:55;;;;;;;6.57;1.90;;;;;;;18.55;84.29;101342.03;5011177;28;20037;-72
2023/07/11 02:26:22;;;;;;;8.07;2.60;;;;;;;18.48;84.77;101339.41;5013981;28;20563;-72
2023/07/11 02:28:47;;;;;;;6.28;2.78;;;;;;;18.44;85.30;101340.78;5025675;28;20049;-73
2023/07/11 02:31:13;;;;;;;8.45;2.30;;;;;;;18.39;85.56;101336.13;5009530;28;21210;-72
2023/07/11 02:33:39;;;;;;;5.55;2.45;;;;;;;18.35;85.67;101328.84;5010807;28;20039;-73
2023/07/11 02:36:05;;;;;;;7.15;2.50;;;;;;;18.34;85.58;101329.84;5011129;28;20393;-74
2023/07/11 02:38:30;;;;;;;7.70;2.85;;;;;;;18.28;85.22;101319.09;5008984;28;20026;-74
2023/07/11 02:40:56;;;;;;;5.15;2.40;;;;;;;18.25;84.94;101324.75;5010654;28;20057;-72
2023/07/11 02:43:21;;;;;;;7.65;2.20;;;;;;;18.14;85.56;101321.84;5012098;28;20034;-74
2023/07/11 02:45:47;;;;;;;4.03;2.03;;;;;;;18.07;86.34;101314.75;5008211;28;20017;-73
2023/07/11 02:48:13;;;;;;;6.32;2.25;;;;;;;18.05;86.65;101311.50;5007284;28;20050;-72
2023/07/11 02:50:38;;;;;;;6.13;2.00;;;;;;;18.03;86.79;101318.78;5007208;28;20420;-72
2023/07/11 02:53:04;;;;;;;4.53;1.92;;;;;;;18.03;86.96;101312.72;5009471;28;20253;-72
2023/07/11 02:55:29;;;;;;;4.82;2.45;;;;;;;18.03;86.73;101318.78;5015350;28;20064;-73
2023/07/11 02:57:55;;;;;;;5.38;1.90;;;;;;;18.03;86.85;101316.16;5013464;28;20026;-73
2023/07/11 03:00:20;;;;;;;9.52;2.40;;;;;;;18.00;86.70;101307.84;5010017;28;20054;-72
2023/07/11 03:02:46;;;;;;;7.82;2.20;;;;;;;18.00;86.66;101311.28;5008205;28;20037;-72
2023/07/11 03:05:11;;;;;;;5.43;2.15;;;;;;;18.01;86.11;101301.63;5011389;28;20045;-73
2023/07/11 03:07:37;;;;;;;11.88;2.40;;;;;;;17.98;85.83;101308.03;5011963;28;20041;-73
2023/07/11 03:10:02;;;;;;;6.85;2.13;;;;;;;18.00;84.83;101303.41;5009818;28;20065;-73
2023/07/11 03:12:28;;;;;;;8.45;2.72;;;;;;;17.95;84.73;101305.81;5006123;28;20034;-74
2023/07/11 03:14:53;;;;;;;5.85;2.30;;;;;;;17.89;85.14;101302.16;5009107;28;20563;-72
2023/07/11 03:17:19;;;;;;;3.70;1.98;;;;;;;17.90;85.43;101306.38;5009190;28;20851;-72
2023/07/11 03:19:44;;;;;;;4.63;2.28;;;;;;;17.92;85.62;101303.56;5004173;28;20058;-72
2023/07/11 03:22:10;;;;;;;9.10;2.97;;;;;;;17.93;85.26;101299.91;5009624;28;20096;-73
2023/07/11 03:24:35;;;;;;;6.07;2.50;;;;;;;17.91;85.46;101296.69;5004574;28;20053;-73
2023/07/11 03:27:01;;;;;;;5.40;2.75;;;;;;;17.90;85.62;101298.50;5010277;28;20048;-72
2023/07/11 03:29:27;;;;;;;11.45;2.92;;;;;;;17.93;85.37;101292.06;5007616;28;20045;-72
2023/07/11 03:31:52;;;;;;;5.97;2.92;;;;;;;17.85;85.97;101300.09;5009498;28;20095;-74
2023/07/11 03:34:18;;;;;;;5.18;2.78;;;;;;;17.83;86.08;101292.38;5027718;28;20073;-73
2023/07/11 03:36:43;;;;;;;4.47;2.42;;;;;;;17.77;86.62;101292.34;4990583;28;20022;-71
2023/07/11 03:39:09;;;;;;;10.30;2.55;;;;;;;17.65;87.56;101292.88;5005017;28;20042;-72
2023/07/11 03:41:34;;;;;;;7.50;3.20;;;;;;;17.71;87.67;101299.97;5006759;28;20038;-72
2023/07/11 03:44:00;;;;;;;7.70;2.63;;;;;;;17.75;87.67;101291.72;4994106;28;20041;-75
2023/07/11 03:46:26;;;;;;;6.85;2.90;;;;;;;17.64;88.27;101290.44;5007926;28;20128;-72
2023/07/11 03:48:54;;;;;;;11.45;3.05;;;;;;;17.68;88.68;101291.66;5006147;28;20053;-75
2023/07/11 03:51:20;;;;;;;4.60;2.42;;;;;;;17.72;88.31;101279.78;5008834;28;20049;-73
2023/07/11 03:53:46;;;;;;;5.85;2.58;;;;;;;17.59;88.93;101282.31;5006977;28;20046;-72
2023/07/11 03:56:12;;;;;;;9.70;3.30;;;;;;;17.59;89.17;101282.31;5007026;28;20396;-73
2023/07/11 03:58:37;;;;;;;7.90;3.03;;;;;;;17.54;89.65;101269.78;5005832;28;22894;-72
2023/07/11 04:01:03;;;;;;;11.38;3.20;;;;;;;17.53;90.36;101273.41;5004115;28;20095;-72
2023/07/11 04:03:28;;;;;;;7.32;2.63;;;;;;;17.53;90.30;101273.41;5008477;28;20033;-74
2023/07/11 04:05:55;;;;;;;9.77;3.30;;;;;;;17.62;90.00;101274.88;5011358;28;20469;-72
2023/07/11 04:08:20;;;;;;;7.72;2.90;;;;;;;17.58;90.24;101272.84;5005834;28;20568;-72
2023/07/11 04:10:46;;;;;;;7.78;3.20;;;;;;;17.52;90.63;101272.59;5012298;28;20042;-72
2023/07/11 04:13:11;;;;;;;7.55;3.15;;;;;;;17.53;90.90;101270.78;5007777;28;20532;-72
2023/07/11 04:15:37;;;;;;;8.13;3.15;;;;;;;17.55;90.74;101274.03;5009421;28;20468;-71
2023/07/11 04:18:02;;;;;;;8.68;3.28;;;;;;;17.51;91.25;101272.78;5007248;28;20507;-72
2023/07/11 04:20:27;;;;;;;7.05;3.05;;;;;;;17.52;91.25;101269.97;5021112;28;20481;-73
2023/07/11 04:22:53;;;;;;;9.25;3.35;;;;;;;17.56;91.15;101269.59;5006147;28;20029;-72
2023/07/11 04:25:18;;;;;;;7.00;3.22;;;;;;;17.56;91.47;101265.16;5010014;28;20603;-73
2023/07/11 04:27:44;;;;;;;12.38;3.65;;;;;;;17.62;91.52;101266.22;5006771;28;20563;-72
2023/07/11 04:30:11;;;;;;;8.38;2.80;;;;;;;17.62;91.29;101260.97;5005082;28;20136;-73
2023/07/11 04:32:36;;;;;;;7.90;2.90;;;;;;;17.59;91.11;101258.72;5007581;28;20029;-72
2023/07/11 04:35:02;;;;;;;8.93;3.00;;;;;;;17.64;91.07;101251.91;4993725;28;20050;-72
2023/07/11 04:37:27;;;;;;;10.80;3.05;;;;;;;17.76;90.29;101251.38;5003201;28;20101;-72
2023/07/11 04:39:53;;;;;;;11.63;3.95;;;;;;;17.75;89.75;101249.75;4988814;28;20034;-73
2023/07/11 04:42:19;;;;;;;11.50;3.28;;;;;;;17.81;89.77;101252.41;5002110;28;20548;-75
2023/07/11 04:44:45;;;;;;;11.77;2.85;;;;;;;17.83;89.80;101247.78;5008700;28;20580;-75
2023/07/11 04:47:11;;;;;;;10.32;3.00;;;;;;;17.89;89.01;101251.47;5013317;28;20037;-76
2023/07/11 04:49:36;;;;;;;15.70;4.00;;;;;;;17.97;88.65;101251.34;5009149;28;20041;-75
2023/07/11 04:52:02;;;;;;;6.70;4.40;;;;;;;17.95;88.57;101247.25;5007645;28;20029;-75
2023/07/11 04:54:27;;;;;;;10.38;3.63;;;;;;;18.02;88.64;101246.28;5007093;28;20050;-75
2023/07/11 04:56:58;;;;;;;8.63;2.88;;;;;;;18.01;88.61;101242.06;5003033;28;20041;-75
2023/07/11 04:59:24;;;;;;;8.00;3.35;;;;;;;18.03;87.78;101240.06;5005538;28;20508;-74
2023/07/11 05:01:50;;;;;;;7.65;2.80;;;;;;;18.14;87.91;101245.75;5003829;28;20061;-74
2023/07/11 05:04:16;;;;;;;4.15;2.75;;;;;;;18.14;87.40;101243.13;5004743;28;20598;-75
2023/07/11 05:06:41;;;;;;;5.70;2.70;;;;;;;18.21;87.38;101236.09;5004659;28;20034;-75
2023/07/11 05:09:07;;;;;;;7.15;3.30;;;;;;;18.35;86.73;101231.72;4991252;28;20052;-75
2023/07/11 05:11:32;;;;;;;7.38;2.80;;;;;;;18.42;86.43;101229.91;5007722;28;20462;-76
2023/07/11 05:13:58;;;;;;;8.07;3.45;;;;;;;18.46;86.08;101226.69;5006034;28;20045;-76
2023/07/11 05:16:29;;;;;;;11.15;3.05;;;;;;;18.56;83.96;101226.31;5005920;28;20463;-74
2023/07/11 05:18:56;;;;;;;7.43;3.20;;;;;;;18.53;83.02;101224.06;5005953;28;20042;-73
2023/07/11 05:21:22;;;;;;;12.07;4.00;;;;;;;18.72;81.41;101232.19;5012897;28;20037;-78
2023/07/11 05:23:48;;;;;;;14.93;3.28;;;;;;;18.81;81.26;101223.16;4990898;28;20049;-72
2023/07/11 05:26:15;;;;;;;8.88;2.67;;;;;;;18.84;80.32;101222.78;5007474;28;20033;-72
2023/07/11 05:28:41;;;;;;;6.65;2.83;;;;;;;18.86;80.90;101224.19;5005185;28;20060;-72
2023/07/11 05:31:07;;;;;;;7.50;2.97;;;;;;;19.04;79.54;101226.22;5007657;28;20033;-73
2023/07/11 05:33:34;;;;;;;9.98;2.90;;;;;;;19.09;78.78;101222.97;5002800;28;20501;-75
2023/07/11 05:38:47;;;;;;;5.40;2.88;;;;;;;19.31;78.46;101206.97;5009779;28;20531;-73
2023/07/11 05:41:13;;;;;;;6.80;2.90;;;;;;;19.40;78.61;101211.03;5009780;28;20428;-72
2023/07/11 05:43:38;;;;;;;7.75;3.08;;;;;;;19.52;78.51;101206.75;5011984;28;20058;-73
2023/07/11 05:46:04;;;;;;;10.65;2.55;;;;;;;19.73;77.30;101200.47;5012453;28;20037;-73
2023/07/11 05:48:29;;;;;;;9.75;2.85;;;;;;;19.88;77.02;101202.06;5008457;28;20042;-72
2023/07/11 05:51:00;;;;;;;6.35;2.90;;;;;;;20.03;75.88;101206.03;5011290;28;20037;-73
2023/07/11 05:53:26;;;;;;;7.13;2.75;;;;;;;20.25;75.31;101192.59;5007958;28;20419;-73
2023/07/11 05:55:52;;;;;;;6.78;3.10;;;;;;;20.35;74.30;101195.56;5014035;28;20193;-73
2023/07/11 05:58:18;;;;;;;8.25;2.63;;;;;;;20.51;74.32;101191.63;4993761;28;20029;-72
2023/07/11 06:00:44;;;;;;;6.90;2.80;;;;;;;20.69;73.14;101196.19;5008543;28;20041;-73
2023/07/11 06:03:09;;;;;;;5.30;2.53;;;;;;;20.90;72.54;101183.66;5017449;28;20034;-73
2023/07/11 06:05:35;;;;;;;7.95;3.15;;;;;;;21.06;72.61;101177.88;5011903;28;20048;-72
2023/07/11 06:08:00;;;;;;;8.90;3.00;;;;;;;21.20;70.84;101171.44;5008965;28;20033;-72
2023/07/11 06:10:26;;;;;;;8.45;2.72;;;;;;;21.41;70.60;101171.25;5011282;28;20050;-74
2023/07/11 06:12:51;;;;;;;8.13;2.70;;;;;;;21.69;70.51;101165.47;5009791;28;20029;-73
2023/07/11 06:15:17;;;;;;;7.00;3.10;;;;;;;21.90;68.31;101162.38;5004569;28;22372;-74
2023/07/11 06:17:42;;;;;;;7.53;2.65;;;;;;;22.00;69.04;101153.13;5002953;28;20037;-72
2023/07/11 06:20:09;;;;;;;8.10;2.58;;;;;;;22.13;69.44;101155.56;4994033;28;20049;-73
2023/07/11 06:22:35;;;;;;;7.93;2.65;;;;;;;22.37;67.72;101147.78;5011517;28;20033;-74
2023/07/11 06:25:01;;;;;;;8.32;2.75;;;;;;;22.58;67.17;101149.88;4989497;28;20045;-73
2023/07/11 06:27:26;;;;;;;8.80;2.83;;;;;;;22.81;66.63;101149.13;5006748;28;20033;-73
2023/07/11 06:29:52;;;;;;;7.40;2.75;;;;;;;22.92;65.35;101144.84;5006975;28;20053;-76
2023/07/11 06:32:17;;;;;;;13.40;2.67;;;;;;;23.06;65.12;101146.25;5006037;28;20033;-76
2023/07/11 06:34:43;;;;;;;7.82;2.40;;;;;;;23.31;64.66;101140.72;4991742;28;20045;-72
2023/07/11 06:37:08;;;;;;;8.02;2.47;;;;;;;23.45;64.20;101141.28;5006951;28;20120;-74
2023/07/11 06:39:34;;;;;;;9.18;3.15;;;;;;;23.78;63.92;101146.94;4992945;28;20061;-74
2023/07/11 06:41:59;;;;;;;6.03;2.38;;;;;;;23.98;62.58;101142.06;4994552;28;20041;-73
2023/07/11 06:44:26;;;;;;;9.02;2.60;;;;;;;24.12;61.83;101136.47;4990420;28;20344;-74
2023/07/11 06:46:51;;;;;;;6.15;2.53;;;;;;;24.30;61.44;101130.94;5002596;28;20045;-73
2023/07/11 06:49:17;;;;;;;4.40;1.95;;;;;;;24.61;60.56;101123.50;5007396;28;20041;-73
2023/07/11 06:51:42;;;;;;;6.05;2.40;;;;;;;24.81;59.17;101123.03;5010916;28;20488;-73
2023/07/11 06:54:07;;;;;;;10.70;1.98;;;;;;;25.01;58.52;101122.50;5006271;28;20069;-74
2023/07/11 06:56:33;;;;;;;10.60;2.65;;;;;;;25.03;56.63;101128.34;5006119;28;21507;-76
2023/07/11 06:58:59;;;;;;;11.60;1.92;;;;;;;25.11;56.94;101116.50;5004080;28;20054;-73
2023/07/11 07:01:24;;;;;;;10.68;2.67;;;;;;;25.47;55.89;101122.28;5008478;28;20507;-76
2023/07/11 07:03:50;;;;;;;9.68;2.13;;;;;;;25.68;53.96;101118.03;4992043;28;20042;-74
2023/07/11 07:06:16;;;;;;;7.43;2.20;;;;;;;25.96;54.46;101115.16;5022833;28;20037;-74
2023/07/11 07:08:41;;;;;;;5.68;1.95;;;;;;;26.29;53.09;101115.97;5010594;28;20049;-75
2023/07/11 07:11:07;;;;;;;10.25;2.38;;;;;;;26.36;51.45;101115.75;5010853;28;20026;-74
2023/07/11 07:13:33;;;;;;;9.88;2.22;;;;;;;26.64;53.06;101108.56;5013416;28;20068;-75
2023/07/11 07:16:00;;;;;;;10.02;2.25;;;;;;;26.91;50.27;101103.91;5009144;28;20116;-76
2023/07/11 07:18:32;;;;;;;9.40;2.50;;;;;;;27.04;49.77;101107.19;5007413;28;20041;-74
2023/07/11 07:20:58;;;;;;;10.10;2.33;;;;;;;27.41;48.86;101100.94;5009622;28;20113;-75
2023/07/11 07:23:25;;;;;;;9.15;2.25;;;;;;;27.66;48.70;101100.25;5004361;28;20180;-74
2023/07/11 07:25:53;;;;;;;9.43;2.60;;;;;;;27.98;48.10;101105.38;5021753;28;21104;-76
2023/07/11 07:28:19;;;;;;;11.35;1.98;;;;;;;28.13;46.83;101093.91;5006365;28;20533;-74
2023/07/11 07:30:49;;;;;;;9.50;2.35;;;;;;;28.31;46.54;101101.38;5006264;28;20041;-73
2023/07/11 07:33:15;;;;;;;5.28;1.60;;;;;;;28.48;45.64;101097.59;5016361;28;20030;-73
2023/07/11 07:35:41;;;;;;;6.72;2.20;;;;;;;28.80;44.39;101096.50;5008525;28;20088;-74
2023/07/11 07:38:08;;;;;;;6.13;2.53;;;;;;;28.88;43.07;101094.09;5015628;28;20476;-75
2023/07/11 07:40:34;;;;;;;5.00;1.95;;;;;;;29.06;42.69;101092.69;5006849;28;20042;-80
2023/07/11 07:42:59;;;;;;;10.45;2.20;;;;;;;28.93;42.87;101088.75;4991420;28;20448;-76
2023/07/11 07:45:25;;;;;;;4.28;2.53;;;;;;;29.21;44.04;101089.19;5007885;28;20082;-73
2023/07/11 07:47:50;;;;;;;7.55;2.00;;;;;;;29.50;44.07;101083.16;5004910;28;20037;-74
2023/07/11 07:50:16;;;;;;;6.68;2.10;;;;;;;29.40;44.30;101085.88;4991544;28;20076;-75
2023/07/11 07:52:41;;;;;;;10.55;2.33;;;;;;;29.46;43.65;101079.44;5004680;28;20034;-73
2023/07/11 07:55:08;;;;;;;7.00;2.03;;;;;;;29.61;43.74;101070.53;5020702;28;20104;-72
2023/07/11 07:57:33;;;;;;;10.07;2.38;;;;;;;29.67;43.23;101075.56;5004955;28;20045;-75
2023/07/11 07:59:59;;;;;;;4.55;2.05;;;;;;;29.71;42.83;101078.50;4992531;28;20042;-73
2023/07/11 08:02:24;;;;;;;10.32;2.00;;;;;;;29.85;41.80;101074.13;5008389;28;20070;-74
2023/07/11 08:04:50;;;;;;;6.43;1.80;;;;;;;29.60;41.22;101067.06;5008601;28;20072;-72
2023/07/11 08:07:16;;;;;;;8.18;1.95;;;;;;;30.13;42.38;101065.63;5010169;28;20038;-75
2023/07/11 08:09:42;;;;;;;6.68;2.35;;;;;;;30.59;41.21;101067.84;5019153;28;20050;-74
2023/07/11 08:12:09;;;;;;;8.10;2.60;;;;;;;30.42;41.49;101055.75;5005902;28;20041;-72
2023/07/11 08:14:39;;;;;;;6.88;1.83;;;;;;;30.88;40.06;101061.66;5006682;28;20045;-74
2023/07/11 08:17:06;;;;;;;6.05;1.50;;;;;;;31.31;40.45;101056.31;5003410;28;20037;-74
2023/07/11 08:19:32;;;;;;;8.88;1.80;;;;;;;31.44;40.31;101056.38;4987016;28;20045;-72
2023/07/11 08:21:58;;;;;;;4.53;2.33;;;;;;;31.75;39.98;101052.47;5002230;28;20388;-74
2023/07/11 08:24:23;;;;;;;4.80;2.15;;;;;;;31.92;38.77;101050.03;5009038;28;20053;-74
2023/07/11 08:26:50;;;;;;;4.50;1.98;;;;;;;31.86;39.10;101045.84;4991483;28;20041;-76
2023/07/11 08:29:16;;;;;;;4.32;1.88;;;;;;;32.04;37.28;101043.41;5004593;28;20056;-72
2023/07/11 08:31:41;;;;;;;7.38;2.10;;;;;;;32.00;37.07;101048.53;5023089;28;20034;-76
2023/07/11 08:34:07;;;;;;;4.13;2.42;;;;;;;31.92;35.97;101044.66;5007123;28;20523;-74
2023/07/11 08:36:32;;;;;;;8.45;1.73;;;;;;;31.99;34.82;101045.06;5012721;28;20034;-75
2023/07/11 08:38:58;;;;;;;6.25;2.00;;;;;;;31.93;36.07;101048.94;5008136;28;20084;-76
2023/07/11 08:41:32;;;;;;;7.97;1.88;;;;;;;31.52;35.56;101049.59;5012639;28;20030;-76
2023/07/11 08:44:04;;;;;;;8.23;2.40;;;;;;;31.73;36.21;101033.19;5009093;28;20124;-74
2023/07/11 08:46:39;;;;;;;5.20;2.05;;;;;;;31.75;37.96;101031.00;5000540;28;20025;-77
2023/07/11 08:49:07;;;;;;;6.32;1.92;;;;;;;31.93;35.32;101026.69;5006500;28;20046;-73
2023/07/11 08:51:37;;;;;;;6.00;2.33;;;;;;;32.11;34.83;101027.75;5007618;28;20484;-75
2023/07/11 08:54:13;;;;;;;7.55;1.90;;;;;;;32.37;34.42;101017.34;5009628;28;20049;-73
2023/07/11 08:56:43;;;;;;;4.25;1.77;;;;;;;32.80;34.53;101022.41;5004293;28;20052;-74
2023/07/11 08:59:19;;;;;;;3.83;1.70;;;;;;;32.68;31.76;101016.75;5002190;28;20044;-76
2023/07/11 09:01:51;;;;;;;6.20;2.17;;;;;;;32.48;33.24;101021.41;5005391;28;20030;-73
2023/07/11 09:04:20;;;;;;;6.40;1.38;;;;;;;32.90;32.54;101018.72;5003957;28;20180;-74
2023/07/11 09:06:55;;;;;;;3.92;1.70;;;;;;;32.98;32.76;100999.19;5006432;28;20026;-72
2023/07/11 09:09:21;;;;;;;3.13;1.55;;;;;;;32.69;32.01;101013.78;5006903;28;20041;-75
2023/07/11 09:12:22;;;;;;;5.05;1.95;;;;;;;33.05;32.57;101002.25;5004798;28;20753;-75
2023/07/11 09:15:01;;;;;;;10.77;1.90;;;;;;;32.53;33.24;101010.59;4999606;28;20181;-74
2023/07/11 09:17:35;;;;;;;5.18;1.85;;;;;;;31.84;33.85;101005.13;5004438;28;20034;-73
2023/07/11 09:20:00;;;;;;;7.78;1.83;;;;;;;31.17;32.61;101003.47;5004424;28;20405;-75
2023/07/11 09:22:34;;;;;;;5.07;1.67;;;;;;;30.95;35.09;101005.91;4994335;28;20100;-74
2023/07/11 09:25:15;;;;;;;4.57;1.40;;;;;;;30.44;35.01;100993.94;4999093;28;20046;-75
2023/07/11 09:28:10;;;;;;;8.05;1.60;;;;;;;30.49;34.85;100993.88;5006866;28;20038;-78
2023/07/11 09:30:48;;;;;;;3.05;1.20;;;;;;;31.49;35.13;100995.78;5021521;28;20050;-74
2023/07/11 09:33:26;;;;;;;3.85;1.50;;;;;;;31.96;35.25;100996.63;5005823;28;20073;-74
2023/07/11 09:35:52;;;;;;;3.53;1.67;;;;;;;32.16;33.88;100992.81;4989944;28;20073;-73
2023/07/11 09:38:35;;;;;;;11.05;3.05;;;;;;;32.40;34.83;100989.94;5003474;28;20057;-74
2023/07/11 09:41:19;;;;;;;;;;;;;;;32.11;33.23;100990.22;5002715;28;20133;-74
2023/07/11 09:43:45;;;;;;;4.60;1.60;;;;;;;32.24;34.36;100992.09;5002392;28;19972;-74
2023/07/11 09:46:16;;;;;;;5.63;1.55;;;;;;;32.33;31.90;100993.00;5005543;28;20030;-76
2023/07/11 09:48:45;;;;;;;11.50;1.80;;;;;;;32.26;31.63;100983.75;5004916;28;20081;-74
2023/07/11 09:51:28;;;;;;;7.22;1.90;;;;;;;32.36;31.60;100984.38;5006769;28;20518;-75
2023/07/11 09:53:55;;;;;;;10.45;1.48;;;;;;;32.31;30.14;100989.03;5006495;28;20045;-75
2023/07/11 09:56:22;;;;;;;4.30;1.67;;;;;;;32.37;30.98;100990.53;5007410;28;20097;-75
2023/07/11 09:58:53;;;;;;;4.70;1.85;;;;;;;32.19;29.26;100990.31;5007181;28;20052;-75
2023/07/11 10:01:26;;;;;;;7.50;2.08;;;;;;;32.39;29.89;100986.44;5006154;28;20507;-76
2023/07/11 10:03:58;;;;;;;3.88;1.70;;;;;;;32.49;31.01;100981.97;4999064;28;20187;-76
2023/07/11 10:06:41;;;;;;;4.20;1.38;;;;;;;32.77;30.13;100975.47;4984471;28;20030;-77
2023/07/11 10:09:09;;;;;;;7.82;1.45;;;;;;;32.84;31.63;100979.66;5004696;28;20050;-78
2023/07/11 10:11:35;;;;;;;3.75;1.55;;;;;;;32.20;32.05;100978.50;5000571;28;20117;-74
2023/07/11 10:14:00;;;;;;;7.05;1.58;;;;;;;31.99;31.77;100972.69;5002452;28;20493;-75
2023/07/11 10:16:32;;;;;;;7.13;1.92;;;;;;;32.14;32.70;100962.81;5007920;28;20481;-73
2023/07/11 10:18:58;;;;;;;2.05;1.25;;;;;;;32.23;32.70;100958.34;5007345;28;20125;-76
2023/07/11 10:21:25;;;;;;;7.53;1.50;;;;;;;32.33;33.14;100960.03;5009552;28;20026;-75
2023/07/11 10:23:52;;;;;;;3.40;1.40;;;;;;;32.58;32.42;100956.03;5012321;28;20062;-74
2023/07/11 10:26:24;;;;;;;8.32;1.60;;;;;;;32.73;31.86;100958.41;5010283;28;20022;-74
2023/07/11 10:29:07;;;;;;;3.55;1.60;;;;;;;32.49;31.57;100963.97;5010365;28;20128;-74
2023/07/11 10:32:09;;;;;;;12.20;2.13;;;;;;;32.17;32.49;100951.47;5012471;28;20042;-74
2023/07/11 10:34:53;;;;;;;6.10;1.93;;;;;;;32.12;33.18;100955.06;4945588;28;20037;-76
2023/07/11 10:37:31;;;;;;;4.72;2.05;;;;;;;32.31;32.06;100948.81;5004975;28;20550;-74
2023/07/11 10:40:23;;;;;;;4.18;1.60;;;;;;;32.43;32.89;100948.28;5010054;28;20061;-75
2023/07/11 10:43:29;;;;;;;5.03;2.40;;;;;;;32.64;32.09;100949.47;5010845;28;20029;-75
2023/07/11 10:46:02;;;;;;;4.78;1.75;;;;;;;33.01;34.65;100936.06;4963105;28;20046;-73
2023/07/11 10:48:33;;;;;;;7.97;2.10;;;;;;;33.00;32.62;100931.78;5012297;28;20324;-74
2023/07/11 10:51:14;;;;;;;5.65;1.48;;;;;;;33.29;33.04;100931.38;4991639;28;20034;-74
2023/07/11 10:54:12;;;;;;;4.57;2.15;;;;;;;33.06;34.25;100926.00;5008895;28;20423;-75
2023/07/11 10:56:42;;;;;;;5.90;1.85;;;;;;;33.26;32.92;100919.34;4979032;28;20073;-76
2023/07/11 10:59:15;;;;;;;8.40;2.08;;;;;;;33.30;32.91;100919.53;5007979;28;20081;-74
2023/07/11 11:02:02;;;;;;;3.10;1.30;;;;;;;33.22;33.87;100913.00;5010983;28;20049;-73
2023/07/11 11:05:03;;;;;;;5.72;2.20;;;;;;;32.84;33.98;100920.59;5002959;28;20053;-75
2023/07/11 11:07:40;;;;;;;11.07;1.85;;;;;;;32.88;33.15;100906.25;5010991;28;20052;-75
2023/07/11 11:10:34;;;;;;;7.28;1.63;;;;;;;32.82;33.58;100917.44;4993651;28;20038;-75
2023/07/11 11:13:11;;;;;;;5.63;1.73;;;;;;;32.87;33.27;100906.56;5006066;28;20034;-76
2023/07/11 11:15:50;;;;;;;6.45;1.40;;;;;;;32.92;34.14;100896.50;4998032;28;20170;-73
2023/07/11 11:18:35;;;;;;;8.68;2.08;;;;;;;33.04;31.96;100892.47;5009022;28;20034;-74
2023/07/11 11:21:03;;;;;;;4.25;1.70;;;;;;;33.00;34.74;100900.34;5010609;28;20037;-75
2023/07/11 11:23:50;;;;;;;5.10;1.80;;;;;;;32.91;33.38;100884.19;5005311;28;20412;-74
2023/07/11 11:26:34;;;;;;;5.93;1.80;;;;;;;33.13;34.02;100879.91;5002044;28;20034;-75
2023/07/11 11:29:08;;;;;;;2.88;1.52;;;;;;;33.28;33.75;100876.06;5004399;28;20057;-73
2023/07/11 11:31:41;;;;;;;5.28;1.27;;;;;;;33.36;33.09;100868.06;5014494;28;20030;-73
2023/07/11 11:34:41;;;;;;;5.63;1.98;;;;;;;33.50;32.09;100867.97;5008146;28;20053;-75